Time;durP1;ratioP1;P1;durP2;ratioP2;P2;SDS_P1;SDS_P2;PMS_P1;PMS_P2;Temp;Humidity;BMP_temperature;BMP_pressure;BME280_temperature;BME280_humidity;BME280_pressure;Samples;Min_cycle;Max_cycle;Signal;HPM_P1;HPM_P2
2021/01/15 00:00:11;;;;;;;30.55;18.65;;;;;;;-1.58;75.13;100113.94;1764939;79;20962;-80
2021/01/15 00:02:39;;;;;;;32.25;17.77;;;;;;;-1.64;75.16;100111.48;1783643;78;21656;-79
2021/01/15 00:05:07;;;;;;;32.88;17.35;;;;;;;-1.70;75.25;100117.56;1746417;80;20973;-78
2021/01/15 00:07:38;;;;;;;27.27;16.32;;;;;;;-1.78;75.34;100116.88;1747333;80;21017;-80
2021/01/15 00:10:09;;;;;;;30.30;18.02;;;;;;;-1.85;75.58;100128.55;1759252;80;21018;-79
2021/01/15 00:12:38;;;;;;;37.35;20.48;;;;;;;-1.85;75.74;100126.82;1760391;80;20980;-78
2021/01/15 00:15:09;;;;;;;34.50;20.70;;;;;;;-1.82;75.87;100119.08;1780652;78;21577;-80
2021/01/15 00:17:37;;;;;;;36.85;20.80;;;;;;;-1.79;75.73;100123.31;1790432;78;20982;-79
2021/01/15 00:20:09;;;;;;;37.42;21.23;;;;;;;-1.75;75.79;100127.08;1760405;80;21005;-79
2021/01/15 00:22:45;;;;;;;37.00;21.00;;;;;;;-1.70;75.72;100123.14;1760000;80;21629;-79
2021/01/15 00:25:13;;;;;;;37.45;20.57;;;;;;;-1.63;75.59;100123.44;1795616;78;21049;-81
2021/01/15 00:27:41;;;;;;;41.02;21.85;;;;;;;-1.61;75.46;100123.42;1760334;80;21130;-80
2021/01/15 00:30:11;;;;;;;38.78;21.45;;;;;;;-1.56;75.32;100123.73;1744258;81;21562;-80
2021/01/15 00:32:39;;;;;;;35.08;21.02;;;;;;;-1.55;75.20;100118.17;1747267;80;20907;-81
2021/01/15 00:35:08;;;;;;;28.02;16.30;;;;;;;-1.53;75.02;100113.86;1755841;79;20954;-79
2021/01/15 00:37:39;;;;;;;33.75;17.40;;;;;;;-1.51;74.71;100113.39;1759196;80;20967;-81
2021/01/15 00:40:09;;;;;;;30.88;17.65;;;;;;;-1.55;74.63;100113.88;1758377;80;21189;-79
2021/01/15 00:42:37;;;;;;;29.80;16.95;;;;;;;-1.56;74.61;100113.44;1755237;80;21045;-82
2021/01/15 00:45:06;;;;;;;39.83;21.45;;;;;;;-1.59;74.60;100105.80;1757659;80;21022;-83
2021/01/15 00:47:34;;;;;;;36.58;20.12;;;;;;;-1.59;74.72;100105.80;1743375;80;21428;-81
2021/01/15 00:50:03;;;;;;;30.25;18.23;;;;;;;-1.59;74.69;100115.25;1759423;80;21507;-80
2021/01/15 00:52:31;;;;;;;29.42;16.80;;;;;;;-1.65;74.65;100116.63;1748733;80;21889;-83
2021/01/15 00:54:59;;;;;;;28.92;17.17;;;;;;;-1.71;74.48;100113.31;1743383;80;21408;-83
2021/01/15 00:57:29;;;;;;;34.78;19.57;;;;;;;-1.79;74.62;100116.89;1751920;80;20950;-82
2021/01/15 00:59:58;;;;;;;30.50;18.27;;;;;;;-1.85;74.68;100116.98;1753288;80;20990;-82
2021/01/15 01:02:35;;;;;;;39.08;20.27;;;;;;;-1.90;74.93;100118.34;1743647;80;21720;-82
2021/01/15 01:05:11;;;;;;;30.97;18.57;;;;;;;-1.92;75.08;100120.94;1760998;80;21065;-85
2021/01/15 01:07:43;;;;;;;34.10;20.10;;;;;;;-1.93;75.12;100117.13;1746667;80;26913;-83
2021/01/15 01:10:14;;;;;;;39.38;19.90;;;;;;;-1.92;75.22;100119.66;1755538;80;21440;-83
2021/01/15 01:12:43;;;;;;;41.00;20.40;;;;;;;-1.87;75.18;100115.72;1750435;80;20955;-83
2021/01/15 01:15:12;;;;;;;39.30;21.45;;;;;;;-1.88;75.08;100114.03;1756785;80;21140;-83
2021/01/15 01:17:42;;;;;;;31.80;19.07;;;;;;;-1.92;75.16;100109.82;1777440;80;21431;-83
2021/01/15 01:20:12;;;;;;;34.27;17.95;;;;;;;-1.93;75.07;100117.97;1753856;80;21014;-82
2021/01/15 01:22:49;;;;;;;33.10;19.10;;;;;;;-1.97;75.00;100118.89;1753660;80;20958;-82
2021/01/15 01:25:12;;;;;;;28.65;18.73;;;;;;;-2.00;75.07;100118.08;1748323;80;21515;-82
2021/01/15 01:27:40;;;;;;;39.88;19.85;;;;;;;-2.00;75.20;100123.22;1759254;80;21412;-82
2021/01/15 01:30:09;;;;;;;38.48;21.23;;;;;;;-2.00;75.19;100115.52;1754573;80;21164;-80
2021/01/15 01:32:37;;;;;;;34.40;20.60;;;;;;;-2.01;75.12;100120.26;1747602;80;21002;-83
2021/01/15 01:35:08;;;;;;;38.98;20.17;;;;;;;-2.02;75.24;100114.28;1760570;80;21456;-82
2021/01/15 01:37:36;;;;;;;32.08;18.80;;;;;;;-2.00;75.17;100111.66;1760951;80;20998;-80
2021/01/15 01:40:06;;;;;;;32.40;18.25;;;;;;;-2.02;75.14;100116.84;1756798;80;21006;-81
2021/01/15 01:42:34;;;;;;;28.17;15.60;;;;;;;-2.05;75.07;100116.88;1754315;80;21181;-82
2021/01/15 01:45:04;;;;;;;32.98;17.42;;;;;;;-2.03;75.02;100116.86;1753117;80;21039;-81
2021/01/15 01:47:32;;;;;;;31.73;18.52;;;;;;;-2.03;74.95;100122.00;1740683;80;20918;-82
2021/01/15 01:50:00;;;;;;;31.40;17.12;;;;;;;-2.03;74.82;100116.42;1760271;80;21408;-82
2021/01/15 01:52:29;;;;;;;30.70;17.27;;;;;;;-2.06;74.72;100111.34;1754736;80;20962;-81
2021/01/15 01:54:57;;;;;;;26.23;15.23;;;;;;;-2.06;74.60;100114.36;1743732;80;22674;-81
2021/01/15 01:57:25;;;;;;;35.15;18.45;;;;;;;-2.08;74.50;100116.94;1754074;80;20958;-80
2021/01/15 01:59:53;;;;;;;34.40;16.23;;;;;;;-2.11;74.45;100127.27;1759083;80;21037;-83
2021/01/15 02:02:21;;;;;;;30.43;16.95;;;;;;;-2.09;74.48;100124.22;1755445;80;20935;-82
2021/01/15 02:04:49;;;;;;;28.00;16.73;;;;;;;-2.10;74.40;100125.10;1751012;80;20954;-83
2021/01/15 02:07:18;;;;;;;31.48;16.65;;;;;;;-2.09;74.30;100125.50;1757361;80;21949;-80
2021/01/15 02:09:52;;;;;;;25.77;15.03;;;;;;;-2.11;74.23;100125.99;1749404;80;21022;-81
2021/01/15 02:12:49;;;;;;;27.30;15.88;;;;;;;-2.13;74.12;100125.17;1771595;80;21041;-81
2021/01/15 02:15:22;;;;;;;24.92;16.30;;;;;;;-2.16;74.09;100128.60;1757247;79;20962;-80
2021/01/15 02:18:00;;;;;;;25.62;14.53;;;;;;;-2.20;74.04;100125.70;1797632;78;20946;-80
2021/01/15 02:21:18;;;;;;;26.65;14.38;;;;;;;-2.25;73.96;100123.61;1772490;78;21721;-79
2021/01/15 02:23:46;;;;;;;27.13;14.70;;;;;;;-2.34;74.03;100120.75;1765023;78;20966;-82
2021/01/15 02:26:50;;;;;;;30.52;15.80;;;;;;;-2.37;74.04;100126.39;1736572;80;21005;-81
2021/01/15 02:29:21;;;;;;;29.27;14.35;;;;;;;-2.41;74.12;100124.29;1791836;78;20958;-81
2021/01/15 02:32:30;;;;;;;34.43;16.65;;;;;;;-2.45;74.14;100126.48;1763713;78;21081;-82
2021/01/15 02:35:26;;;;;;;29.48;15.58;;;;;;;-2.48;74.12;100132.96;1778556;79;20928;-81
2021/01/15 02:38:08;;;;;;;29.55;17.50;;;;;;;-2.52;74.17;100136.44;1790907;78;20962;-81
2021/01/15 02:40:48;;;;;;;26.90;15.68;;;;;;;-2.56;74.04;100130.93;1792731;78;20922;-83
2021/01/15 02:43:16;;;;;;;22.22;13.55;;;;;;;-2.61;73.98;100139.98;1748572;79;21657;-84
2021/01/15 02:45:45;;;;;;;21.97;13.10;;;;;;;-2.65;73.83;100143.89;1746851;80;20907;-81
2021/01/15 02:48:15;;;;;;;26.17;13.62;;;;;;;-2.70;73.64;100152.94;1724582;79;21232;-78
2021/01/15 02:50:48;;;;;;;23.32;13.10;;;;;;;-2.75;73.56;100161.98;1752226;79;21069;-79
2021/01/15 02:53:16;;;;;;;21.33;13.03;;;;;;;-2.83;73.34;100166.80;1774411;79;21033;-80
2021/01/15 02:55:45;;;;;;;22.93;12.47;;;;;;;-2.89;73.11;100170.30;1745175;80;20929;-78
2021/01/15 02:58:13;;;;;;;19.62;11.68;;;;;;;-2.98;73.03;100168.70;1754983;79;20919;-79
2021/01/15 03:00:41;;;;;;;19.82;11.93;;;;;;;-3.04;72.95;100170.48;1769389;79;22008;-76
2021/01/15 03:03:32;;;;;;;16.30;11.12;;;;;;;-3.14;72.99;100176.13;1769014;79;20962;-78
2021/01/15 03:06:04;;;;;;;18.27;11.50;;;;;;;-3.19;72.93;100174.06;1750237;79;21009;-79
2021/01/15 03:08:32;;;;;;;17.57;12.05;;;;;;;-3.28;73.16;100179.29;1754311;80;21034;-79
2021/01/15 03:11:01;;;;;;;20.65;11.33;;;;;;;-3.33;73.06;100180.63;1736220;79;21046;-78
2021/01/15 03:13:29;;;;;;;16.02;10.32;;;;;;;-3.39;73.11;100181.96;1748288;80;21207;-79
2021/01/15 03:16:03;;;;;;;16.65;9.58;;;;;;;-3.44;73.12;100183.73;1765375;79;21026;-79
2021/01/15 03:18:31;;;;;;;18.52;12.10;;;;;;;-3.52;73.29;100179.94;1753317;79;21114;-79
2021/01/15 03:21:01;;;;;;;19.40;11.35;;;;;;;-3.57;73.33;100181.27;1741812;80;20983;-79
2021/01/15 03:23:36;;;;;;;19.45;12.07;;;;;;;-3.60;73.40;100188.12;1764742;79;21021;-78
2021/01/15 03:26:05;;;;;;;17.30;11.78;;;;;;;-3.62;73.41;100188.16;1758472;80;21178;-78
2021/01/15 03:28:32;;;;;;;25.97;13.78;;;;;;;-3.63;73.32;100190.72;1764034;79;20965;-79
2021/01/15 03:31:00;;;;;;;19.95;11.48;;;;;;;-3.65;73.29;100190.73;1766622;79;21152;-79
2021/01/15 03:33:29;;;;;;;22.00;13.83;;;;;;;-3.66;73.19;100187.77;1751253;79;20958;-77
2021/01/15 03:35:57;;;;;;;21.73;13.18;;;;;;;-3.67;73.11;100192.89;1767364;79;21017;-79
2021/01/15 03:38:25;;;;;;;18.75;11.22;;;;;;;-3.71;73.08;100189.53;1760284;79;21249;-80
2021/01/15 03:40:55;;;;;;;24.18;12.25;;;;;;;-3.69;73.07;100199.33;1764084;80;21083;-79
2021/01/15 03:43:24;;;;;;;22.02;13.50;;;;;;;-3.68;72.92;100192.48;1776108;80;21010;-80
2021/01/15 03:45:52;;;;;;;19.32;12.47;;;;;;;-3.65;72.65;100197.58;1754636;79;21559;-80
2021/01/15 03:48:21;;;;;;;20.12;12.68;;;;;;;-3.69;72.61;100193.33;1763596;79;20953;-79
2021/01/15 03:50:50;;;;;;;20.90;11.90;;;;;;;-3.68;72.51;100195.05;1743355;79;21161;-78
2021/01/15 03:53:18;;;;;;;20.60;12.78;;;;;;;-3.71;72.52;100191.22;1758958;79;20970;-79
2021/01/15 03:55:48;;;;;;;20.55;11.18;;;;;;;-3.71;72.34;100190.81;1766048;79;21058;-80
2021/01/15 03:58:15;;;;;;;22.75;11.68;;;;;;;-3.74;72.31;100190.81;1765575;79;21017;-80
2021/01/15 04:00:44;;;;;;;30.30;14.50;;;;;;;-3.75;72.19;100187.41;1756277;78;20887;-77
2021/01/15 04:03:12;;;;;;;34.18;17.57;;;;;;;-3.80;72.15;100191.73;1767266;79;21025;-79
2021/01/15 04:05:42;;;;;;;29.63;16.17;;;;;;;-3.80;72.14;100192.14;1764056;79;21049;-80
2021/01/15 04:08:11;;;;;;;27.37;14.68;;;;;;;-3.81;72.04;100193.02;1754815;80;21057;-77
2021/01/15 04:10:40;;;;;;;31.52;15.78;;;;;;;-3.81;71.98;100192.58;1761145;79;20915;-78
2021/01/15 04:13:08;;;;;;;29.50;15.63;;;;;;;-3.82;71.87;100190.89;1765978;79;21388;-79
2021/01/15 04:15:37;;;;;;;25.32;13.38;;;;;;;-3.79;71.77;100195.98;1790128;79;21102;-78
2021/01/15 04:18:05;;;;;;;30.57;16.23;;;;;;;-3.80;71.56;100191.73;1766121;79;21026;-79
2021/01/15 04:20:34;;;;;;;31.48;16.00;;;;;;;-3.80;71.43;100199.83;1755884;79;20938;-80
2021/01/15 04:23:02;;;;;;;25.85;16.23;;;;;;;-3.85;71.29;100193.90;1758126;79;20950;-81
2021/01/15 04:25:30;;;;;;;24.57;14.28;;;;;;;-3.90;71.18;100196.50;1754331;79;21373;-81
2021/01/15 04:28:00;;;;;;;23.05;13.98;;;;;;;-3.98;71.06;100199.13;1742523;80;21436;-81
2021/01/15 04:30:28;;;;;;;23.80;13.13;;;;;;;-4.03;70.95;100200.85;1736040;79;20969;-80
2021/01/15 04:32:56;;;;;;;26.23;13.50;;;;;;;-4.08;70.92;100209.45;1766057;79;21021;-80
2021/01/15 04:35:23;;;;;;;26.25;13.93;;;;;;;-4.11;70.78;100205.20;1749988;80;21069;-83
2021/01/15 04:37:51;;;;;;;27.52;13.78;;;;;;;-4.15;70.72;100206.08;1771959;79;20930;-82
2021/01/15 04:40:19;;;;;;;28.90;14.50;;;;;;;-4.17;70.55;100205.23;1763588;79;21238;-78
2021/01/15 04:42:47;;;;;;;33.65;14.87;;;;;;;-4.23;70.44;100197.15;1788251;79;21000;-79
2021/01/15 04:45:16;;;;;;;22.77;12.07;;;;;;;-4.26;70.34;100202.30;1763304;79;21025;-80
2021/01/15 04:47:46;;;;;;;21.57;12.60;;;;;;;-4.34;70.17;100197.64;1776121;79;21061;-80
2021/01/15 04:50:16;;;;;;;22.35;12.35;;;;;;;-4.44;70.10;100196.02;1742850;79;21073;-79
2021/01/15 04:52:52;;;;;;;19.50;11.22;;;;;;;-4.50;70.11;100199.88;1788194;79;21937;-80
2021/01/15 04:55:22;;;;;;;19.65;10.90;;;;;;;-4.54;70.03;100198.20;1780516;79;20967;-82
2021/01/15 04:57:55;;;;;;;19.32;10.95;;;;;;;-4.61;70.04;100189.27;1763358;79;21522;-80
2021/01/15 05:00:25;;;;;;;18.98;10.72;;;;;;;-4.63;70.00;100193.53;1754487;79;21100;-80
2021/01/15 05:02:53;;;;;;;17.87;10.53;;;;;;;-4.66;70.05;100199.95;1757986;79;20962;-79
2021/01/15 05:05:26;;;;;;;20.45;12.43;;;;;;;-4.67;70.02;100190.59;1764905;79;21451;-80
2021/01/15 05:08:11;;;;;;;16.45;10.53;;;;;;;-4.67;69.96;100194.44;1760488;79;21475;-79
2021/01/15 05:10:44;;;;;;;17.32;9.93;;;;;;;-4.68;69.86;100195.27;1743000;79;20966;-80
2021/01/15 05:13:15;;;;;;;13.60;9.40;;;;;;;-4.72;69.90;100205.53;1753552;79;20990;-82
2021/01/15 05:15:46;;;;;;;14.63;9.30;;;;;;;-4.72;69.70;100205.53;1822771;78;21033;-80
2021/01/15 05:18:19;;;;;;;13.70;8.30;;;;;;;-4.80;69.76;100202.59;1763635;78;21204;-80
2021/01/15 05:20:47;;;;;;;14.07;9.93;;;;;;;-4.82;69.74;100208.13;1795998;78;21057;-79
2021/01/15 05:23:16;;;;;;;80.38;63.45;;;;;;;-4.87;69.68;100204.75;1776825;78;21013;-82
2021/01/15 05:25:48;;;;;;;20.25;12.90;;;;;;;-4.92;69.68;100209.01;1782582;79;21032;-81
2021/01/15 05:28:17;;;;;;;22.55;11.22;;;;;;;-4.97;69.68;100209.90;1786855;78;20966;-82
2021/01/15 05:30:47;;;;;;;17.60;11.90;;;;;;;-5.00;69.62;100211.61;1785042;79;21154;-81
2021/01/15 05:33:16;;;;;;;22.13;10.72;;;;;;;-5.04;69.53;100205.23;1775151;79;21072;-78
2021/01/15 05:35:50;;;;;;;17.73;10.40;;;;;;;-5.09;69.51;100208.20;1788269;79;21038;-80
2021/01/15 05:38:20;;;;;;;18.90;10.45;;;;;;;-5.14;69.55;100212.05;1780888;79;21034;-80
2021/01/15 05:40:52;;;;;;;22.00;11.78;;;;;;;-5.16;69.53;100211.64;1786625;79;20947;-80
2021/01/15 05:43:31;;;;;;;17.30;10.63;;;;;;;-5.18;69.53;100210.80;1774704;79;21125;-79
2021/01/15 05:46:14;;;;;;;21.82;10.32;;;;;;;-5.22;69.44;100215.92;1780515;79;21651;-81
2021/01/15 05:48:48;;;;;;;19.25;10.32;;;;;;;-5.26;69.55;100223.16;1775312;79;21508;-81
2021/01/15 05:51:29;;;;;;;17.30;10.85;;;;;;;-5.25;69.55;100218.90;1754369;80;21103;-81
2021/01/15 05:53:57;;;;;;;22.22;11.65;;;;;;;-5.26;69.45;100219.33;1766929;80;20962;-81
2021/01/15 05:56:45;;;;;;;19.75;10.75;;;;;;;-5.27;69.27;100224.44;1763504;79;21183;-82
2021/01/15 05:59:17;;;;;;;22.25;12.33;;;;;;;-5.30;69.13;100224.45;1765246;80;21009;-83
2021/01/15 06:02:06;;;;;;;18.90;11.43;;;;;;;-5.33;68.94;100224.04;1771517;79;20998;-82
2021/01/15 06:04:39;;;;;;;24.65;13.10;;;;;;;-5.37;68.83;100225.33;1765256;79;21638;-82
2021/01/15 06:07:16;;;;;;;26.00;11.73;;;;;;;-5.42;68.91;100233.00;1751849;79;21082;-81
2021/01/15 06:09:47;;;;;;;25.62;12.60;;;;;;;-5.46;68.88;100238.53;1784121;79;21439;-82
2021/01/15 06:12:19;;;;;;;27.17;12.70;;;;;;;-5.45;68.91;100238.09;1764989;79;21033;-81
2021/01/15 06:14:57;;;;;;;22.98;13.20;;;;;;;-5.44;68.90;100241.09;1750143;79;21483;-80
2021/01/15 06:17:22;;;;;;;14.83;8.18;;;;;;;-5.46;68.94;100241.52;1746624;79;20922;-81
2021/01/15 06:19:58;;;;;;;17.62;10.50;;;;;;;-5.46;68.93;100244.91;1765094;79;20942;-80
2021/01/15 06:22:47;;;;;;;16.17;9.03;;;;;;;-5.47;68.89;100238.52;1759198;79;22237;-81
2021/01/15 06:25:32;;;;;;;15.55;9.50;;;;;;;-5.47;68.74;100242.34;1787656;80;21001;-80
2021/01/15 06:28:04;;;;;;;21.25;10.80;;;;;;;-5.47;68.78;100234.69;1742744;80;20998;-79
2021/01/15 06:30:42;;;;;;;19.32;11.40;;;;;;;-5.45;68.72;100231.30;1751309;80;20931;-79
2021/01/15 06:33:14;;;;;;;21.02;11.68;;;;;;;-5.41;68.68;100231.70;1743957;80;20959;-80
2021/01/15 06:35:46;;;;;;;25.80;13.00;;;;;;;-5.37;68.49;100235.11;1744924;80;21171;-81
2021/01/15 06:38:19;;;;;;;22.93;12.60;;;;;;;-5.38;68.45;100235.98;1766490;80;21002;-81
2021/01/15 06:40:49;;;;;;;23.90;13.40;;;;;;;-5.36;68.34;100238.08;1753253;80;21007;-80
2021/01/15 06:43:35;;;;;;;24.05;14.47;;;;;;;-5.32;68.33;100242.77;1753665;80;20986;-81
2021/01/15 06:46:05;;;;;;;30.77;17.92;;;;;;;-5.31;68.26;100240.22;1759831;80;21061;-80
2021/01/15 06:48:39;;;;;;;32.05;16.27;;;;;;;-5.26;68.25;100242.77;1746472;80;21562;-79
2021/01/15 06:51:13;;;;;;;27.32;16.62;;;;;;;-5.20;68.22;100244.05;1786889;79;21434;-78
2021/01/15 06:53:41;;;;;;;21.42;11.90;;;;;;;-5.16;68.17;100248.70;1773828;78;21025;-79
2021/01/15 06:56:18;;;;;;;22.40;12.35;;;;;;;-5.12;68.10;100247.41;1790291;78;20959;-80
2021/01/15 06:58:46;;;;;;;23.15;12.68;;;;;;;-5.12;68.12;100251.25;1779067;78;21074;-80
2021/01/15 07:01:25;;;;;;;22.50;12.28;;;;;;;-5.11;68.21;100252.97;1787957;78;21059;-79
2021/01/15 07:04:29;;;;;;;23.55;12.13;;;;;;;-5.06;68.38;100251.24;1780401;79;21149;-79
2021/01/15 07:07:14;;;;;;;22.05;12.80;;;;;;;-4.98;68.47;100258.03;1775406;78;21567;-80
2021/01/15 07:09:47;;;;;;;23.02;13.35;;;;;;;-4.88;68.44;100260.57;1814500;78;20994;-74
2021/01/15 07:12:22;;;;;;;20.88;12.85;;;;;;;-4.80;68.46;100263.97;1776303;79;21474;-73
2021/01/15 07:14:56;;;;;;;24.77;14.38;;;;;;;-4.72;68.44;100266.92;1769219;79;21078;-73
2021/01/15 07:17:32;;;;;;;24.60;14.15;;;;;;;-4.67;68.46;100262.22;1757067;79;21623;-73
2021/01/15 07:20:18;;;;;;;24.65;13.88;;;;;;;-4.59;68.48;100257.91;1790542;78;21002;-73
2021/01/15 07:23:00;;;;;;;21.10;13.50;;;;;;;-4.53;68.59;100257.48;1781351;79;21593;-74
2021/01/15 07:25:28;;;;;;;32.33;21.17;;;;;;;-4.46;68.49;100264.27;1780551;79;20997;-74
2021/01/15 07:27:58;;;;;;;26.48;18.57;;;;;;;-4.45;68.73;100260.84;1785326;78;20994;-74
2021/01/15 07:30:29;;;;;;;25.75;13.50;;;;;;;-4.36;68.68;100267.19;1790378;79;21086;-74
2021/01/15 07:32:59;;;;;;;22.50;15.05;;;;;;;-4.32;68.86;100264.20;1771528;78;21708;-74
2021/01/15 07:35:29;;;;;;;29.23;19.62;;;;;;;-4.23;68.88;100270.11;1785823;79;20961;-75
2021/01/15 07:38:14;;;;;;;39.80;34.63;;;;;;;-4.19;68.79;100266.67;1785635;79;20986;-74
2021/01/15 07:40:42;;;;;;;39.78;32.80;;;;;;;-4.11;68.70;100272.17;1784925;78;21174;-74
2021/01/15 07:43:30;;;;;;;30.80;26.00;;;;;;;-4.06;68.81;100266.19;1784093;78;20926;-74
2021/01/15 07:46:01;;;;;;;31.60;26.30;;;;;;;-3.97;68.78;100264.84;1786442;78;21087;-75
2021/01/15 07:48:30;;;;;;;29.50;20.17;;;;;;;-3.89;68.82;100263.53;1784171;78;20975;-75
2021/01/15 07:51:10;;;;;;;27.52;13.80;;;;;;;-3.81;68.77;100268.14;1790063;78;20942;-76
2021/01/15 07:53:41;;;;;;;26.65;16.17;;;;;;;-3.80;68.65;100268.98;1789863;79;21032;-76
2021/01/15 07:56:10;;;;;;;21.05;12.53;;;;;;;-3.78;68.82;100270.70;1787561;78;21006;-78
2021/01/15 07:58:45;;;;;;;13.60;10.20;;;;;;;-3.72;68.74;100271.08;1787636;79;21491;-77
2021/01/15 08:01:18;;;;;;;19.35;12.37;;;;;;;-3.67;68.66;100281.29;1817496;78;21017;-76
2021/01/15 08:04:00;;;;;;;20.57;12.37;;;;;;;-3.61;68.61;100279.53;1784497;79;20946;-76
2021/01/15 08:06:27;;;;;;;21.52;13.70;;;;;;;-3.56;68.72;100284.62;1781649;79;21185;-76
2021/01/15 08:09:10;;;;;;;19.92;12.93;;;;;;;-3.48;68.80;100279.45;1781307;79;21642;-75
2021/01/15 08:11:41;;;;;;;24.80;14.55;;;;;;;-3.43;68.72;100279.81;1782644;78;21014;-75
2021/01/15 08:14:17;;;;;;;26.65;14.85;;;;;;;-3.34;68.66;100277.61;1731206;78;20911;-77
2021/01/15 08:16:46;;;;;;;16.50;10.90;;;;;;;-3.34;68.81;100278.45;1783191;78;20990;-76
2021/01/15 08:19:21;;;;;;;17.32;11.12;;;;;;;-3.37;68.79;100278.92;1786305;79;21168;-91
2021/01/15 08:22:13;;;;;;;31.15;21.97;;;;;;;-3.42;68.90;100280.25;1817646;78;20939;-87
2021/01/15 08:24:47;;;;;;;21.70;13.05;;;;;;;-3.40;69.22;100284.06;1791011;78;21010;-88
2021/01/15 08:27:21;;;;;;;25.90;16.60;;;;;;;-3.34;69.11;100289.98;1785267;78;21100;-84
2021/01/15 08:29:50;;;;;;;24.70;15.23;;;;;;;-3.30;69.19;100289.54;1777640;79;21001;-83
2021/01/15 08:32:18;;;;;;;20.52;11.85;;;;;;;-3.20;69.27;100292.45;1781001;78;21605;-83
2021/01/15 08:34:47;;;;;;;36.38;16.48;;;;;;;-3.14;69.13;100285.12;1783581;79;21041;-90
2021/01/15 08:37:16;;;;;;;24.75;12.53;;;;;;;-3.13;68.96;100279.98;1778553;79;20978;-89
2021/01/15 08:39:49;;;;;;;24.05;14.50;;;;;;;-3.10;68.96;100277.82;1781604;79;21005;-91
2021/01/15 08:42:17;;;;;;;40.88;22.80;;;;;;;-3.11;68.76;100285.11;1786525;79;20955;-86
2021/01/15 08:44:50;;;;;;;21.95;11.95;;;;;;;-3.16;68.91;100280.03;1778771;79;21133;-84
2021/01/15 08:47:20;;;;;;;17.27;10.15;;;;;;;-3.20;68.74;100280.04;1786048;78;21017;-86
2021/01/15 08:49:56;;;;;;;19.98;12.03;;;;;;;-3.29;68.60;100273.31;1782036;78;20951;-80
2021/01/15 08:52:29;;;;;;;19.48;12.88;;;;;;;-3.40;68.75;100267.40;1780764;79;21626;-78
2021/01/15 08:54:59;;;;;;;25.62;12.63;;;;;;;-3.48;68.93;100270.48;1763542;79;21503;-78
2021/01/15 08:57:30;;;;;;;22.10;12.68;;;;;;;-3.58;69.04;100268.41;1782895;79;21100;-81
2021/01/15 09:00:14;;;;;;;19.35;11.80;;;;;;;-3.65;69.20;100270.60;1774175;78;21033;-79
2021/01/15 09:02:42;;;;;;;25.65;11.95;;;;;;;-3.70;69.40;100274.48;1781015;78;21494;-80
2021/01/15 09:05:18;;;;;;;31.55;16.87;;;;;;;-3.72;69.50;100271.08;1791704;78;20942;-80
2021/01/15 09:07:48;;;;;;;28.42;14.43;;;;;;;-3.68;69.67;100271.48;1781033;78;21021;-78
2021/01/15 09:10:17;;;;;;;18.27;10.95;;;;;;;-3.63;69.66;100267.16;1789598;78;21560;-74
2021/01/15 09:12:48;;;;;;;26.90;14.70;;;;;;;-3.56;69.64;100267.96;1783353;78;20970;-77
2021/01/15 09:15:24;;;;;;;19.40;11.53;;;;;;;-3.50;69.52;100267.08;1781784;78;21013;-78
2021/01/15 09:17:59;;;;;;;29.63;16.93;;;;;;;-3.50;69.28;100263.23;1780237;79;21120;-79
2021/01/15 09:20:27;;;;;;;20.23;12.63;;;;;;;-3.55;69.34;100262.83;1769888;78;21023;-82
2021/01/15 09:22:55;;;;;;;25.35;15.78;;;;;;;-3.55;69.40;100263.27;1786389;78;21409;-81
2021/01/15 09:25:26;;;;;;;23.45;13.13;;;;;;;-3.57;69.62;100261.99;1783238;78;20997;-79
2021/01/15 09:27:54;;;;;;;21.05;11.78;;;;;;;-3.51;69.89;100265.36;1782701;78;21049;-78
2021/01/15 09:30:22;;;;;;;20.62;12.55;;;;;;;-3.45;69.96;100262.31;1788346;78;20982;-79
2021/01/15 09:32:50;;;;;;;24.85;14.65;;;;;;;-3.39;69.79;100258.86;1777544;79;21487;-79
2021/01/15 09:35:19;;;;;;;27.10;15.40;;;;;;;-3.31;69.83;100253.66;1786273;79;22653;-79
2021/01/15 09:37:47;;;;;;;19.37;12.18;;;;;;;-3.22;69.66;100262.56;1764397;78;21005;-80
2021/01/15 09:40:16;;;;;;;22.13;13.00;;;;;;;-3.12;69.52;100253.91;1778347;78;21563;-79
2021/01/15 09:44:06;;;;;;;26.45;15.35;;;;;;;-2.99;69.33;100254.19;1777297;79;22675;-79
2021/01/15 09:46:34;;;;;;;24.20;13.68;;;;;;;-2.95;69.21;100253.74;1720314;82;21385;-82
2021/01/15 09:49:03;;;;;;;18.07;11.85;;;;;;;-2.82;69.14;100259.59;1720175;82;21385;-80
2021/01/15 09:51:31;;;;;;;18.27;13.05;;;;;;;-2.67;68.78;100261.12;1720112;82;21092;-80
2021/01/15 09:53:59;;;;;;;20.62;13.25;;;;;;;-2.54;68.53;100257.53;1720278;82;21613;-81
2021/01/15 09:56:29;;;;;;;21.40;13.15;;;;;;;-2.39;68.24;100251.38;1719870;82;20955;-80
2021/01/15 09:58:59;;;;;;;17.00;11.53;;;;;;;-2.27;67.89;100250.35;1718937;82;21245;-78
2021/01/15 10:01:28;;;;;;;22.35;11.90;;;;;;;-2.13;67.27;100251.88;1720496;81;21987;-82
2021/01/15 10:03:59;;;;;;;20.25;11.97;;;;;;;-2.05;66.79;100255.59;1721319;82;20975;-83
2021/01/15 10:06:27;;;;;;;18.32;11.35;;;;;;;-1.99;66.81;100252.11;1720505;82;20956;-83
2021/01/15 10:08:59;;;;;;;18.00;11.25;;;;;;;-1.88;66.38;100244.64;1723721;78;21426;-82
2021/01/15 10:11:30;;;;;;;14.87;11.03;;;;;;;-1.80;66.15;100248.81;1723395;80;21087;-83
2021/01/15 10:14:00;;;;;;;17.50;11.03;;;;;;;-1.69;66.09;100253.35;1719650;82;21729;-83
2021/01/15 10:16:29;;;;;;;16.62;12.15;;;;;;;-1.67;65.67;100249.91;1719172;82;21042;-82
2021/01/15 10:18:58;;;;;;;19.37;13.55;;;;;;;-1.67;65.40;100238.34;1720252;82;20966;-84
2021/01/15 10:21:32;;;;;;;18.92;13.55;;;;;;;-1.71;65.45;100235.41;1720642;82;20911;-81
2021/01/15 10:24:00;;;;;;;22.00;15.35;;;;;;;-1.76;65.60;100237.62;1718922;80;20967;-85
2021/01/15 10:26:32;;;;;;;23.02;14.65;;;;;;;-1.73;65.84;100223.45;1719011;82;22053;-82
2021/01/15 10:29:09;;;;;;;20.17;14.03;;;;;;;-1.64;66.10;100219.89;1718815;82;21563;-83
2021/01/15 10:31:54;;;;;;;20.90;14.43;;;;;;;-1.43;66.22;100223.80;1720354;82;20955;-80
2021/01/15 10:34:23;;;;;;;23.90;15.93;;;;;;;-1.21;66.10;100212.70;1720470;82;21460;-80
2021/01/15 10:36:53;;;;;;;24.02;15.63;;;;;;;-0.98;65.92;100213.10;1720019;82;20967;-81
2021/01/15 10:39:22;;;;;;;20.35;13.53;;;;;;;-0.75;65.76;100212.67;1690076;83;21747;-80
2021/01/15 10:41:55;;;;;;;19.67;12.40;;;;;;;-0.63;65.21;100208.98;1719791;82;21007;-79
2021/01/15 10:44:27;;;;;;;34.30;20.08;;;;;;;-0.52;64.83;100205.75;1720261;82;21377;-80
2021/01/15 10:46:54;;;;;;;17.15;12.85;;;;;;;-0.45;65.07;100204.73;1720096;80;21381;-81
2021/01/15 10:49:24;;;;;;;17.45;12.47;;;;;;;-0.37;64.60;100199.43;1749862;82;20951;-81
2021/01/15 10:51:54;;;;;;;16.27;12.07;;;;;;;-0.33;64.28;100204.92;1720246;82;21259;-81
2021/01/15 10:54:23;;;;;;;18.48;12.15;;;;;;;-0.34;64.33;100199.80;1718338;82;20919;-83
2021/01/15 10:56:53;;;;;;;16.65;12.03;;;;;;;-0.31;64.24;100203.58;1718086;82;21114;-82
2021/01/15 10:59:22;;;;;;;14.38;10.93;;;;;;;-0.33;64.34;100201.51;1719406;82;21022;-80
2021/01/15 11:01:51;;;;;;;14.63;10.70;;;;;;;-0.31;64.22;100199.72;1719708;82;20998;-81
2021/01/15 11:04:21;;;;;;;16.30;11.65;;;;;;;-0.28;64.13;100199.66;1718225;82;22211;-82
2021/01/15 11:06:54;;;;;;;18.25;11.68;;;;;;;-0.22;64.19;100196.96;1718064;82;21044;-81
2021/01/15 11:09:24;;;;;;;16.37;11.05;;;;;;;-0.19;64.14;100194.30;1718291;82;20967;-81
2021/01/15 11:11:56;;;;;;;15.53;10.78;;;;;;;-0.18;63.62;100199.01;1717785;82;20982;-81
2021/01/15 11:14:26;;;;;;;14.53;11.12;;;;;;;-0.30;63.79;100200.98;1719730;81;20959;-81
2021/01/15 11:16:55;;;;;;;17.52;11.25;;;;;;;-0.33;64.18;100197.20;1719513;82;21157;-82
2021/01/15 11:19:24;;;;;;;16.17;12.03;;;;;;;-0.35;63.87;100198.95;1719575;82;21014;-79
2021/01/15 11:21:52;;;;;;;19.27;13.22;;;;;;;-0.39;64.28;100194.75;1720545;82;21053;-78
2021/01/15 11:24:22;;;;;;;21.15;15.15;;;;;;;-0.31;64.44;100194.14;1720277;82;21026;-81
2021/01/15 11:26:50;;;;;;;21.57;14.95;;;;;;;-0.23;64.58;100193.52;1720318;82;21014;-79
2021/01/15 11:29:23;;;;;;;16.97;12.05;;;;;;;-0.11;64.21;100192.41;1718508;82;22134;-78
2021/01/15 11:31:53;;;;;;;18.55;12.47;;;;;;;-0.10;63.94;100182.49;1719778;82;21156;-82